Time;durP1;ratioP1;P1;durP2;ratioP2;P2;SDS_P1;SDS_P2;PMS_P1;PMS_P2;Temp;Humidity;BMP_temperature;BMP_pressure;BME280_temperature;BME280_humidity;BME280_pressure;Samples;Min_cycle;Max_cycle;Signal;HPM_P1;HPM_P2
2023/07/09 00:00:01;;;;;;;3.10;1.33;;;;;;;;;;5053982;28;20529;-79
2023/07/09 00:02:27;;;;;;;2.70;1.43;;;;;;;;;;5053789;28;20780;-80
2023/07/09 00:04:53;;;;;;;5.10;1.40;;;;;;;;;;5053906;28;20601;-80
2023/07/09 00:07:25;;;;;;;2.80;1.50;;;;;;;;;;5053036;28;20412;-80
2023/07/09 00:09:51;;;;;;;3.20;1.10;;;;;;;;;;5053741;28;20417;-80
2023/07/09 00:12:18;;;;;;;2.53;1.20;;;;;;;;;;5051282;28;21069;-80
2023/07/09 00:14:44;;;;;;;2.40;1.10;;;;;;;;;;5053726;28;20418;-81
2023/07/09 00:17:23;;;;;;;2.70;1.10;;;;;;;;;;5052303;28;20440;-81
2023/07/09 00:19:49;;;;;;;3.80;1.77;;;;;;;;;;5053428;28;20406;-81
2023/07/09 00:22:16;;;;;;;2.90;1.40;;;;;;;;;;5053066;28;20420;-80
2023/07/09 00:24:44;;;;;;;2.50;1.27;;;;;;;;;;5052085;28;20421;-80
2023/07/09 00:27:10;;;;;;;3.73;1.80;;;;;;;;;;5053132;28;20424;-80
2023/07/09 00:29:36;;;;;;;4.37;1.23;;;;;;;;;;5053239;28;20806;-80
2023/07/09 00:32:02;;;;;;;2.53;1.40;;;;;;;;;;5051754;28;20513;-80
2023/07/09 00:34:27;;;;;;;4.00;1.63;;;;;;;;;;5053136;28;20173;-80
2023/07/09 00:36:53;;;;;;;2.43;1.53;;;;;;;;;;5050459;28;20191;-80
2023/07/09 00:39:20;;;;;;;3.60;1.10;;;;;;;;;;5053088;28;20170;-80
2023/07/09 00:41:46;;;;;;;2.70;1.17;;;;;;;;;;5053118;28;20180;-80
2023/07/09 00:44:24;;;;;;;4.50;1.87;;;;;;;;;;5052943;28;20405;-79
2023/07/09 00:46:50;;;;;;;5.03;2.20;;;;;;;;;;5052723;28;20486;-80
2023/07/09 00:49:46;;;;;;;3.90;1.30;;;;;;;;;;5052957;28;20877;-80
2023/07/09 00:52:19;;;;;;;3.03;1.37;;;;;;;;;;5052620;28;20197;-79
2023/07/09 00:54:46;;;;;;;3.03;1.27;;;;;;;;;;5052918;28;20415;-80
2023/07/09 00:57:17;;;;;;;5.70;1.43;;;;;;;;;;5052928;28;20396;-80
2023/07/09 00:59:44;;;;;;;3.13;1.60;;;;;;;;;;5052891;28;20413;-80
2023/07/09 01:02:10;;;;;;;11.03;2.60;;;;;;;;;;5052964;28;20397;-79
2023/07/09 01:04:40;;;;;;;2.10;1.10;;;;;;;;;;5052003;28;20424;-80
2023/07/09 01:07:07;;;;;;;2.77;1.40;;;;;;;;;;5051275;28;20484;-80
2023/07/09 01:09:35;;;;;;;2.30;0.77;;;;;;;;;;5052291;28;20501;-79
2023/07/09 01:12:02;;;;;;;2.43;1.10;;;;;;;;;;5049953;28;20850;-80
2023/07/09 01:14:31;;;;;;;2.13;0.93;;;;;;;;;;5052485;28;20466;-80
2023/07/09 01:17:00;;;;;;;1.90;1.10;;;;;;;;;;5052369;28;20412;-80
2023/07/09 01:19:28;;;;;;;3.30;1.30;;;;;;;;;;5052025;28;20451;-80
2023/07/09 01:21:55;;;;;;;3.00;1.27;;;;;;;;;;5051926;28;20420;-79
2023/07/09 01:24:39;;;;;;;3.13;1.90;;;;;;;;;;5052208;28;20966;-79
2023/07/09 01:27:07;;;;;;;3.23;1.37;;;;;;;;;;5050557;28;20413;-80
2023/07/09 01:29:35;;;;;;;2.67;0.93;;;;;;;;;;5052417;28;20410;-80
2023/07/09 01:32:00;;;;;;;5.73;1.57;;;;;;;;;;5049782;28;20458;-79
2023/07/09 01:34:26;;;;;;;2.73;1.23;;;;;;;;;;5052263;28;20858;-79
2023/07/09 01:36:53;;;;;;;2.50;1.20;;;;;;;;;;5052013;28;20170;-79
2023/07/09 01:39:19;;;;;;;2.63;1.20;;;;;;;;;;5049583;28;20416;-80
2023/07/09 01:41:47;;;;;;;1.90;1.03;;;;;;;;;;5052270;28;20415;-80
2023/07/09 01:44:13;;;;;;;1.37;1.03;;;;;;;;;;5052245;28;20166;-80
2023/07/09 01:46:39;;;;;;;2.53;1.13;;;;;;;;;;5049528;28;20415;-80
2023/07/09 01:49:07;;;;;;;4.20;1.40;;;;;;;;;;5051876;28;20799;-79
2023/07/09 01:51:33;;;;;;;2.20;1.27;;;;;;;;;;5051591;28;20197;-80
2023/07/09 01:53:59;;;;;;;3.30;1.40;;;;;;;;;;5049807;28;20423;-80
2023/07/09 01:56:25;;;;;;;2.90;1.53;;;;;;;;;;5052566;28;20495;-79
2023/07/09 01:58:51;;;;;;;2.80;1.23;;;;;;;;;;5045637;28;20572;-79
2023/07/09 02:01:19;;;;;;;3.57;1.50;;;;;;;;;;5052148;28;20423;-80
2023/07/09 02:03:45;;;;;;;4.13;2.00;;;;;;;;;;5051884;28;20182;-79
2023/07/09 02:06:12;;;;;;;5.50;1.27;;;;;;;;;;5051823;28;20466;-80
2023/07/09 02:08:38;;;;;;;2.50;1.93;;;;;;;;;;5052237;28;20896;-80
2023/07/09 02:11:07;;;;;;;3.90;1.30;;;;;;;;;;5049027;28;20513;-79
2023/07/09 02:13:33;;;;;;;3.23;1.63;;;;;;;;;;5031847;28;20540;-80
2023/07/09 02:15:59;;;;;;;2.10;1.40;;;;;;;;;;5032578;28;20407;-79
2023/07/09 02:18:26;;;;;;;3.33;1.60;;;;;;;;;;5032574;28;20630;-80
2023/07/09 02:20:55;;;;;;;3.37;1.43;;;;;;;;;;5032189;28;20166;-79
2023/07/09 02:23:26;;;;;;;2.93;1.80;;;;;;;;;;5032515;28;20423;-80
2023/07/09 02:25:52;;;;;;;3.20;1.30;;;;;;;;;;5039824;28;20775;-80
2023/07/09 02:28:18;;;;;;;3.60;1.50;;;;;;;;;;5052287;28;20432;-80
2023/07/09 02:30:43;;;;;;;1.70;1.20;;;;;;;;;;5052405;28;20182;-80
2023/07/09 02:33:09;;;;;;;2.00;0.90;;;;;;;;;;5052183;28;21173;-80
2023/07/09 02:35:35;;;;;;;2.73;1.83;;;;;;;;;;5052766;28;20173;-80
2023/07/09 02:38:01;;;;;;;2.83;1.10;;;;;;;;;;5055771;28;20215;-80
2023/07/09 02:40:27;;;;;;;2.77;1.27;;;;;;;;;;5055742;28;20407;-80
2023/07/09 02:42:53;;;;;;;5.60;2.27;;;;;;;;;;5055678;28;20822;-80
2023/07/09 02:45:19;;;;;;;2.20;0.87;;;;;;;;;;5055707;28;20174;-80
2023/07/09 02:47:45;;;;;;;3.80;1.37;;;;;;;;;;5055616;28;20423;-80
2023/07/09 02:50:11;;;;;;;4.20;1.10;;;;;;;;;;5055225;28;20438;-80
2023/07/09 02:52:37;;;;;;;3.97;1.60;;;;;;;;;;5055458;28;20459;-80
2023/07/09 02:55:03;;;;;;;3.33;1.60;;;;;;;;;;5055509;28;20256;-80
2023/07/09 02:57:29;;;;;;;3.00;1.40;;;;;;;;;;5055430;28;20415;-80
2023/07/09 02:59:55;;;;;;;2.67;1.93;;;;;;;;;;5055383;28;20461;-80
2023/07/09 03:02:21;;;;;;;3.70;1.40;;;;;;;;;;5054113;28;20193;-80
2023/07/09 03:04:47;;;;;;;2.63;1.40;;;;;;;;;;5055294;28;20174;-79
2023/07/09 03:07:13;;;;;;;2.60;1.07;;;;;;;;;;5054806;28;20844;-80
2023/07/09 03:09:39;;;;;;;3.37;1.30;;;;;;;;;;5055328;28;20169;-80
2023/07/09 03:12:05;;;;;;;2.10;0.83;;;;;;;;;;5054938;28;20577;-80
2023/07/09 03:14:31;;;;;;;2.27;1.63;;;;;;;;;;5055129;28;20181;-79
2023/07/09 03:16:57;;;;;;;2.10;1.20;;;;;;;;;;5053816;28;20771;-80
2023/07/09 03:19:23;;;;;;;2.93;1.10;;;;;;;;;;5054983;28;20181;-80
2023/07/09 03:21:48;;;;;;;2.70;1.33;;;;;;;;;;5054618;28;20320;-80
2023/07/09 03:24:18;;;;;;;2.80;1.57;;;;;;;;;;5054836;28;20176;-80
2023/07/09 03:26:44;;;;;;;2.67;1.60;;;;;;;;;;5054802;28;20181;-79
2023/07/09 03:29:10;;;;;;;2.97;1.07;;;;;;;;;;5053555;28;20428;-80
2023/07/09 03:31:36;;;;;;;1.73;1.10;;;;;;;;;;5053460;28;20471;-80
2023/07/09 03:34:02;;;;;;;2.60;1.20;;;;;;;;;;5054812;28;20173;-80
2023/07/09 03:36:28;;;;;;;2.53;1.50;;;;;;;;;;5054254;28;20415;-79
2023/07/09 03:38:54;;;;;;;2.53;1.40;;;;;;;;;;5054687;28;20423;-80
2023/07/09 03:41:20;;;;;;;3.93;1.33;;;;;;;;;;5053271;28;20425;-81
2023/07/09 03:43:46;;;;;;;2.40;0.80;;;;;;;;;;5054604;28;20188;-80
2023/07/09 03:46:12;;;;;;;1.70;1.20;;;;;;;;;;5054350;28;20415;-81
2023/07/09 03:48:38;;;;;;;2.20;1.50;;;;;;;;;;5053850;28;20404;-80
2023/07/09 03:51:04;;;;;;;5.40;1.07;;;;;;;;;;5054000;28;20184;-80
2023/07/09 03:53:30;;;;;;;3.27;1.87;;;;;;;;;;5054339;28;20478;-79
2023/07/09 03:55:56;;;;;;;2.23;1.83;;;;;;;;;;5054361;28;20192;-80
2023/07/09 03:58:22;;;;;;;3.53;1.40;;;;;;;;;;5054250;28;20424;-80
2023/07/09 04:00:48;;;;;;;1.93;0.90;;;;;;;;;;5054225;28;20458;-80
2023/07/09 04:03:14;;;;;;;2.57;1.10;;;;;;;;;;5054148;28;20420;-79
2023/07/09 04:05:40;;;;;;;2.70;1.50;;;;;;;;;;5053743;28;20808;-79
2023/07/09 04:08:06;;;;;;;1.93;1.20;;;;;;;;;;5054082;28;20246;-79
2023/07/09 04:10:32;;;;;;;2.30;1.23;;;;;;;;;;5053957;28;20226;-79
2023/07/09 04:12:58;;;;;;;3.00;1.57;;;;;;;;;;5053926;28;20209;-79
2023/07/09 04:15:24;;;;;;;4.47;1.47;;;;;;;;;;5053908;28;20422;-79
2023/07/09 04:17:51;;;;;;;2.80;1.10;;;;;;;;;;5053907;28;20496;-79
2023/07/09 04:20:17;;;;;;;3.73;1.80;;;;;;;;;;5053336;28;20409;-79
2023/07/09 04:22:43;;;;;;;3.47;1.47;;;;;;;;;;5053684;28;20920;-79
2023/07/09 04:25:10;;;;;;;3.90;1.53;;;;;;;;;;5053761;28;20170;-79
2023/07/09 04:27:36;;;;;;;2.63;0.93;;;;;;;;;;5053754;28;20901;-79
2023/07/09 04:30:04;;;;;;;4.73;1.30;;;;;;;;;;5053668;28;20400;-78
2023/07/09 04:32:30;;;;;;;3.53;1.47;;;;;;;;;;5053501;28;20475;-79
2023/07/09 04:34:56;;;;;;;2.90;1.13;;;;;;;;;;5053222;28;21044;-78
2023/07/09 04:37:23;;;;;;;2.43;1.67;;;;;;;;;;5053594;28;20258;-78
2023/07/09 04:39:49;;;;;;;2.93;1.53;;;;;;;;;;5053491;28;20915;-78
2023/07/09 04:42:15;;;;;;;2.80;1.47;;;;;;;;;;5053552;28;20870;-78
2023/07/09 04:44:41;;;;;;;3.93;1.47;;;;;;;;;;5053430;28;20408;-78
2023/07/09 04:47:07;;;;;;;3.40;2.10;;;;;;;;;;5053337;28;20408;-79
2023/07/09 04:49:33;;;;;;;1.90;1.30;;;;;;;;;;5053277;28;20422;-78
2023/07/09 04:52:00;;;;;;;1.83;1.40;;;;;;;;;;5052831;28;20502;-79
2023/07/09 04:54:26;;;;;;;3.67;1.57;;;;;;;;;;5053278;28;20858;-79
2023/07/09 04:56:52;;;;;;;3.13;1.20;;;;;;;;;;5053247;28;20481;-78
2023/07/09 04:59:18;;;;;;;3.83;1.60;;;;;;;;;;5052737;28;20510;-79
2023/07/09 05:01:44;;;;;;;2.23;1.60;;;;;;;;;;5053180;28;20466;-79
2023/07/09 05:04:10;;;;;;;2.63;1.73;;;;;;;;;;5053116;28;20916;-79
2023/07/09 05:06:36;;;;;;;3.07;1.20;;;;;;;;;;5052735;28;20172;-79
2023/07/09 05:09:03;;;;;;;2.47;1.30;;;;;;;;;;5053109;28;20462;-79
2023/07/09 05:11:28;;;;;;;1.83;1.27;;;;;;;;;;5051530;28;20475;-79
2023/07/09 05:13:54;;;;;;;2.63;1.70;;;;;;;;;;5052975;28;20816;-79
2023/07/09 05:16:21;;;;;;;3.30;1.67;;;;;;;;;;5052950;28;20428;-80
2023/07/09 05:18:47;;;;;;;2.97;1.17;;;;;;;;;;5052964;28;20768;-80
2023/07/09 05:21:13;;;;;;;2.63;1.33;;;;;;;;;;5052565;28;20403;-80
2023/07/09 05:23:39;;;;;;;3.43;1.33;;;;;;;;;;5052958;28;20420;-80
2023/07/09 05:26:05;;;;;;;3.20;1.40;;;;;;;;;;5052750;28;20408;-80
2023/07/09 05:28:34;;;;;;;3.00;1.77;;;;;;;;;;5051272;28;20936;-80
2023/07/09 05:31:00;;;;;;;3.00;1.40;;;;;;;;;;5052845;28;20184;-80
2023/07/09 05:33:26;;;;;;;2.53;1.00;;;;;;;;;;5052675;28;20472;-80
2023/07/09 05:35:52;;;;;;;2.23;1.10;;;;;;;;;;5052468;28;20638;-80
2023/07/09 05:38:18;;;;;;;2.67;1.67;;;;;;;;;;5052833;28;20909;-81
2023/07/09 05:40:44;;;;;;;3.10;1.30;;;;;;;;;;5052784;28;20182;-80
2023/07/09 05:43:11;;;;;;;3.30;1.57;;;;;;;;;;5052654;28;20179;-79
2023/07/09 05:45:38;;;;;;;4.80;1.80;;;;;;;;;;5052586;28;20462;-79
2023/07/09 05:48:04;;;;;;;3.20;1.50;;;;;;;;;;5050839;28;20412;-80
2023/07/09 05:50:33;;;;;;;6.13;2.17;;;;;;;;;;5041371;28;20436;-80
2023/07/09 05:52:59;;;;;;;3.20;1.77;;;;;;;;;;5032627;28;20468;-80
2023/07/09 05:55:25;;;;;;;3.67;2.10;;;;;;;;;;5032650;28;20767;-81
2023/07/09 05:57:50;;;;;;;2.40;1.80;;;;;;;;;;5032645;28;20921;-80
2023/07/09 06:00:16;;;;;;;3.90;1.53;;;;;;;;;;5032567;28;20171;-80
2023/07/09 06:02:42;;;;;;;2.10;1.43;;;;;;;;;;5032582;28;20576;-80
2023/07/09 06:05:10;;;;;;;2.67;1.63;;;;;;;;;;5032218;28;20400;-80
2023/07/09 06:07:37;;;;;;;2.60;1.90;;;;;;;;;;5032540;28;20447;-80
2023/07/09 06:10:03;;;;;;;3.17;1.30;;;;;;;;;;5032584;28;20919;-80
2023/07/09 06:12:29;;;;;;;4.77;1.80;;;;;;;;;;5034781;28;20483;-80
2023/07/09 06:14:55;;;;;;;2.00;1.23;;;;;;;;;;5036297;28;20507;-80
2023/07/09 06:17:20;;;;;;;5.20;2.47;;;;;;;;;;5034937;28;20558;-79
2023/07/09 06:19:46;;;;;;;3.00;1.63;;;;;;;;;;5035884;28;20512;-80
2023/07/09 06:22:12;;;;;;;2.03;1.80;;;;;;;;;;5036166;28;20253;-80
2023/07/09 06:24:38;;;;;;;3.23;2.30;;;;;;;;;;5036163;28;20261;-81
2023/07/09 06:27:04;;;;;;;3.03;1.70;;;;;;;;;;5036132;28;20223;-82
2023/07/09 06:29:30;;;;;;;2.73;1.87;;;;;;;;;;5036013;28;20257;-80
2023/07/09 06:31:56;;;;;;;2.80;2.03;;;;;;;;;;5034845;28;20553;-79
2023/07/09 06:34:22;;;;;;;3.60;2.30;;;;;;;;;;5035671;28;20178;-79
2023/07/09 06:36:48;;;;;;;3.80;2.10;;;;;;;;;;5036048;28;20600;-81
2023/07/09 06:39:18;;;;;;;3.23;2.00;;;;;;;;;;5035913;28;20256;-80
2023/07/09 06:41:45;;;;;;;2.63;1.60;;;;;;;;;;5047057;28;20412;-79
2023/07/09 06:44:11;;;;;;;2.20;1.37;;;;;;;;;;5055712;28;20419;-79
2023/07/09 06:46:36;;;;;;;2.30;1.70;;;;;;;;;;5055555;28;20533;-80
2023/07/09 06:49:05;;;;;;;3.50;2.43;;;;;;;;;;5055661;28;20416;-79
2023/07/09 06:51:31;;;;;;;2.43;2.13;;;;;;;;;;5054983;28;20261;-80
2023/07/09 06:53:57;;;;;;;3.03;1.83;;;;;;;;;;5055506;28;20892;-79
2023/07/09 06:56:23;;;;;;;2.23;1.47;;;;;;;;;;5055337;28;20408;-81
2023/07/09 06:58:49;;;;;;;5.87;2.90;;;;;;;;;;5055768;28;20821;-81
2023/07/09 07:01:16;;;;;;;3.23;2.20;;;;;;;;;;5055565;28;20944;-80
2023/07/09 07:03:42;;;;;;;2.93;1.73;;;;;;;;;;5051701;28;20436;-80
2023/07/09 07:06:09;;;;;;;3.13;2.47;;;;;;;;;;5043791;28;20780;-80
2023/07/09 07:08:35;;;;;;;5.37;1.70;;;;;;;;;;5035382;28;20570;-80
2023/07/09 07:11:02;;;;;;;2.53;2.07;;;;;;;;;;5035062;28;20976;-80
2023/07/09 07:13:32;;;;;;;3.10;2.47;;;;;;;;;;5035127;28;20511;-82
2023/07/09 07:15:58;;;;;;;2.43;2.23;;;;;;;;;;5046749;28;20425;-80
2023/07/09 07:18:24;;;;;;;3.70;2.60;;;;;;;;;;5035033;28;20452;-80
2023/07/09 07:20:50;;;;;;;2.73;1.57;;;;;;;;;;5034539;28;20409;-80
2023/07/09 07:23:17;;;;;;;3.50;2.80;;;;;;;;;;5034932;28;20170;-80
2023/07/09 07:25:43;;;;;;;2.93;2.23;;;;;;;;;;5034997;28;20417;-80
2023/07/09 07:28:09;;;;;;;4.33;3.43;;;;;;;;;;5034951;28;20917;-80
2023/07/09 07:30:34;;;;;;;2.90;1.87;;;;;;;;;;5034825;28;20421;-81
2023/07/09 07:33:00;;;;;;;3.93;2.07;;;;;;;;;;5033340;28;20221;-80
2023/07/09 07:35:26;;;;;;;5.43;2.07;;;;;;;;;;5034447;28;20175;-80
2023/07/09 07:37:52;;;;;;;2.50;1.90;;;;;;;;;;5034716;28;20182;-81
2023/07/09 07:40:18;;;;;;;4.40;2.43;;;;;;;;;;5034698;28;20636;-81
2023/07/09 07:42:44;;;;;;;4.27;2.23;;;;;;;;;;5034607;28;20646;-80
2023/07/09 07:45:10;;;;;;;3.10;2.00;;;;;;;;;;5034525;28;20202;-81
2023/07/09 07:47:36;;;;;;;2.40;2.20;;;;;;;;;;5034424;28;20232;-79
2023/07/09 07:50:02;;;;;;;3.87;2.63;;;;;;;;;;5032838;28;20492;-80
2023/07/09 07:52:28;;;;;;;3.57;3.07;;;;;;;;;;5034344;28;20252;-80
2023/07/09 07:54:54;;;;;;;3.10;1.90;;;;;;;;;;5034380;28;20174;-80
2023/07/09 07:57:20;;;;;;;2.30;2.10;;;;;;;;;;5034301;28;20427;-82
2023/07/09 07:59:46;;;;;;;3.30;2.40;;;;;;;;;;5034223;28;20795;-80
2023/07/09 08:02:13;;;;;;;3.57;1.80;;;;;;;;;;5034164;28;20193;-80
2023/07/09 08:04:40;;;;;;;2.57;2.37;;;;;;;;;;5033771;28;20299;-82
2023/07/09 08:07:07;;;;;;;5.43;3.33;;;;;;;;;;5034178;28;20409;-78
2023/07/09 08:09:33;;;;;;;3.27;2.53;;;;;;;;;;5034074;28;20829;-78
2023/07/09 08:11:59;;;;;;;2.67;2.40;;;;;;;;;;5033868;28;20484;-80
2023/07/09 08:14:25;;;;;;;2.93;2.63;;;;;;;;;;5033968;28;20213;-81
2023/07/09 08:16:51;;;;;;;3.67;2.63;;;;;;;;;;5033986;28;20170;-81
2023/07/09 08:19:18;;;;;;;3.10;2.10;;;;;;;;;;5032342;28;20177;-81
2023/07/09 08:21:44;;;;;;;2.53;2.27;;;;;;;;;;5032568;28;20778;-81
2023/07/09 08:24:10;;;;;;;4.13;2.40;;;;;;;;;;5033864;28;20425;-81
2023/07/09 08:26:37;;;;;;;3.60;2.57;;;;;;;;;;5033758;28;20189;-81
2023/07/09 08:29:05;;;;;;;3.17;2.70;;;;;;;;;;5033732;28;20182;-81
2023/07/09 08:31:30;;;;;;;2.67;2.00;;;;;;;;;;5033618;28;20410;-81
2023/07/09 08:33:56;;;;;;;3.30;3.00;;;;;;;;;;5032837;28;20429;-81
2023/07/09 08:36:23;;;;;;;5.20;2.77;;;;;;;;;;5033252;28;20417;-82
2023/07/09 08:38:49;;;;;;;2.97;2.47;;;;;;;;;;5033622;28;20167;-81
2023/07/09 08:41:26;;;;;;;2.60;1.90;;;;;;;;;;5033500;28;20420;-82
2023/07/09 08:44:01;;;;;;;3.17;2.43;;;;;;;;;;5033522;28;20613;-82
2023/07/09 08:46:46;;;;;;;3.40;2.93;;;;;;;;;;5032201;28;20413;-82
2023/07/09 08:49:15;;;;;;;3.53;2.53;;;;;;;;;;5033061;28;20412;-81
2023/07/09 08:51:43;;;;;;;3.27;2.93;;;;;;;;;;5033280;28;20416;-83
2023/07/09 08:54:13;;;;;;;3.17;2.50;;;;;;;;;;5033231;28;20413;-81
2023/07/09 08:56:39;;;;;;;3.10;2.80;;;;;;;;;;5033288;28;20974;-81
2023/07/09 08:59:04;;;;;;;4.80;2.87;;;;;;;;;;5033202;28;20507;-81
2023/07/09 09:01:46;;;;;;;3.43;2.43;;;;;;;;;;5033152;28;20189;-81
2023/07/09 09:04:28;;;;;;;7.03;2.90;;;;;;;;;;5030857;28;20549;-81
2023/07/09 09:07:00;;;;;;;2.77;2.57;;;;;;;;;;5042697;28;20427;-82
2023/07/09 09:09:26;;;;;;;2.63;2.20;;;;;;;;;;5036638;28;20441;-81
2023/07/09 09:12:09;;;;;;;2.83;2.60;;;;;;;;;;5041801;28;20457;-82
2023/07/09 09:14:38;;;;;;;3.47;2.27;;;;;;;;;;5031307;28;20186;-83
2023/07/09 09:17:10;;;;;;;3.00;2.70;;;;;;;;;;5032627;28;20412;-82
2023/07/09 09:19:45;;;;;;;3.60;2.73;;;;;;;;;;5032305;28;20416;-82
2023/07/09 09:22:13;;;;;;;3.50;3.17;;;;;;;;;;5032738;28;20512;-84
2023/07/09 09:24:58;;;;;;;3.50;3.20;;;;;;;;;;5033256;28;20425;-81
2023/07/09 09:27:24;;;;;;;3.00;2.30;;;;;;;;;;5052460;28;20503;-83
2023/07/09 09:29:50;;;;;;;3.13;2.83;;;;;;;;;;5052419;28;20511;-82
2023/07/09 09:32:29;;;;;;;4.10;3.70;;;;;;;;;;5052213;28;20201;-83
2023/07/09 09:34:56;;;;;;;2.97;2.50;;;;;;;;;;5052113;28;20177;-85
2023/07/09 09:37:29;;;;;;;2.63;2.40;;;;;;;;;;5052382;28;20499;-84
2023/07/09 09:39:55;;;;;;;3.00;2.67;;;;;;;;;;5046361;28;20846;-82
2023/07/09 09:42:23;;;;;;;6.23;3.17;;;;;;;;;;5049908;28;20416;-84
2023/07/09 09:44:49;;;;;;;2.63;2.43;;;;;;;;;;5051783;28;20427;-83
2023/07/09 09:47:15;;;;;;;4.07;3.67;;;;;;;;;;5054928;28;20411;-84
2023/07/09 09:49:42;;;;;;;4.00;3.10;;;;;;;;;;5054331;28;20174;-85
2023/07/09 09:52:14;;;;;;;3.30;3.07;;;;;;;;;;5055272;28;20561;-87
2023/07/09 09:54:41;;;;;;;3.67;3.33;;;;;;;;;;5055291;28;20772;-85
2023/07/09 09:57:17;;;;;;;3.07;2.77;;;;;;;;;;5055283;28;20408;-85
2023/07/09 09:59:43;;;;;;;4.90;3.20;;;;;;;;;;5055188;28;20425;-86
2023/07/09 10:02:19;;;;;;;4.37;3.03;;;;;;;;;;5054041;28;20491;-85
2023/07/09 10:04:46;;;;;;;4.07;2.80;;;;;;;;;;5054267;28;20503;-85
2023/07/09 10:07:16;;;;;;;3.30;3.00;;;;;;;;;;5054541;28;20477;-84
2023/07/09 10:09:42;;;;;;;3.33;3.03;;;;;;;;;;5053642;28;20427;-84
2023/07/09 10:12:13;;;;;;;4.87;2.97;;;;;;;;;;5053627;28;20914;-85
2023/07/09 10:14:58;;;;;;;4.67;3.20;;;;;;;;;;5054891;28;20196;-84
2023/07/09 10:17:38;;;;;;;3.20;2.70;;;;;;;;;;5046817;28;20428;-86
2023/07/09 10:20:09;;;;;;;4.30;3.47;;;;;;;;;;5040003;28;20447;-82
2023/07/09 10:22:44;;;;;;;2.90;2.60;;;;;;;;;;5039416;28;20433;-85
2023/07/09 10:25:29;;;;;;;4.73;3.47;;;;;;;;;;5039547;28;20486;-82
2023/07/09 10:28:05;;;;;;;3.50;3.20;;;;;;;;;;5041010;28;20439;-82
2023/07/09 10:30:49;;;;;;;3.60;3.30;;;;;;;;;;5039954;28;20476;-84
2023/07/09 10:33:23;;;;;;;3.17;2.80;;;;;;;;;;5038104;28;20503;-83
2023/07/09 10:35:52;;;;;;;4.50;2.90;;;;;;;;;;5039387;28;20542;-82
2023/07/09 10:38:18;;;;;;;7.03;6.43;;;;;;;;;;5039983;28;20855;-82
2023/07/09 10:40:46;;;;;;;3.60;3.30;;;;;;;;;;5040562;28;20433;-83
2023/07/09 10:43:18;;;;;;;3.03;2.73;;;;;;;;;;5039720;28;20221;-82
2023/07/09 10:45:47;;;;;;;3.47;3.17;;;;;;;;;;5036277;28;20463;-82
2023/07/09 10:48:33;;;;;;;3.60;3.30;;;;;;;;;;5035557;28;20444;-84
2023/07/09 10:51:02;;;;;;;3.50;2.80;;;;;;;;;;5042101;28;20519;-85
2023/07/09 10:53:30;;;;;;;3.80;3.50;;;;;;;;;;5042379;28;20484;-85
2023/07/09 10:56:01;;;;;;;3.80;3.50;;;;;;;;;;5040453;28;20436;-86
2023/07/09 10:58:33;;;;;;;3.70;3.40;;;;;;;;;;5041945;28;20463;-86
2023/07/09 11:01:00;;;;;;;3.77;3.47;;;;;;;;;;5040493;28;20487;-83
2023/07/09 11:03:45;;;;;;;4.30;3.37;;;;;;;;;;5033788;28;20417;-83
2023/07/09 11:06:22;;;;;;;3.40;2.70;;;;;;;;;;5049840;28;20909;-84
2023/07/09 11:08:50;;;;;;;3.70;3.33;;;;;;;;;;5054145;28;20923;-84
2023/07/09 11:11:29;;;;;;;3.43;3.20;;;;;;;;;;5052473;28;20987;-83
2023/07/09 11:13:57;;;;;;;3.67;3.30;;;;;;;;;;5052921;28;20476;-84
2023/07/09 11:16:42;;;;;;;3.33;3.03;;;;;;;;;;5053904;28;20804;-84
2023/07/09 11:19:17;;;;;;;6.53;3.50;;;;;;;;;;5053602;28;20439;-83
2023/07/09 11:21:59;;;;;;;3.97;3.57;;;;;;;;;;5053779;28;20458;-83
2023/07/09 11:24:30;;;;;;;3.40;3.13;;;;;;;;;;5054520;28;20405;-83
2023/07/09 11:26:56;;;;;;;4.67;4.17;;;;;;;;;;5054849;28;20448;-82
2023/07/09 11:29:24;;;;;;;3.87;3.07;;;;;;;;;;5053877;28;20442;-82
2023/07/09 11:31:50;;;;;;;4.03;3.50;;;;;;;;;;5054627;28;20173;-81
2023/07/09 11:34:17;;;;;;;4.40;3.60;;;;;;;;;;5053686;28;20955;-82
2023/07/09 11:36:58;;;;;;;4.10;3.70;;;;;;;;;;5054642;28;20174;-82
2023/07/09 11:39:42;;;;;;;4.43;3.77;;;;;;;;;;5054465;28;20423;-82
2023/07/09 11:42:26;;;;;;;3.67;2.97;;;;;;;;;;5054368;28;20420;-81
2023/07/09 11:44:57;;;;;;;4.70;3.43;;;;;;;;;;5052267;28;20873;-81
2023/07/09 11:47:25;;;;;;;3.60;3.30;;;;;;;;;;5053885;28;20408;-82
2023/07/09 11:50:01;;;;;;;4.40;3.50;;;;;;;;;;5053909;28;20412;-81
2023/07/09 11:52:33;;;;;;;4.67;4.17;;;;;;;;;;5054014;28;20473;-82
2023/07/09 11:55:02;;;;;;;3.57;3.30;;;;;;;;;;5053735;28;20425;-83
2023/07/09 11:57:29;;;;;;;3.47;3.17;;;;;;;;;;5053994;28;20487;-81
2023/07/09 11:59:59;;;;;;;3.70;3.40;;;;;;;;;;5053983;28;20511;-81
2023/07/09 12:02:30;;;;;;;3.63;3.33;;;;;;;;;;5053875;28;20415;-81
2023/07/09 12:04:55;;;;;;;3.90;2.93;;;;;;;;;;5052965;28;20482;-81
2023/07/09 12:07:23;;;;;;;3.30;2.87;;;;;;;;;;5053729;28;20417;-84
2023/07/09 12:09:50;;;;;;;3.97;3.30;;;;;;;;;;5053769;28;20185;-84
2023/07/09 12:12:18;;;;;;;4.13;3.83;;;;;;;;;;5053301;28;20498;-81
2023/07/09 12:14:44;;;;;;;4.43;4.03;;;;;;;;;;5053505;28;20892;-80
2023/07/09 12:17:09;;;;;;;3.23;3.03;;;;;;;;;;5053584;28;20412;-83
2023/07/09 12:19:35;;;;;;;3.77;3.47;;;;;;;;;;5053297;28;20239;-83
2023/07/09 12:22:01;;;;;;;4.10;3.80;;;;;;;;;;5053505;28;20181;-84
2023/07/09 12:24:29;;;;;;;4.63;4.20;;;;;;;;;;5053232;28;20178;-87
2023/07/09 12:26:58;;;;;;;4.20;3.90;;;;;;;;;;5052661;28;20456;-88
2023/07/09 12:29:27;;;;;;;4.20;3.03;;;;;;;;;;5050263;28;20420;-87
2023/07/09 12:31:53;;;;;;;4.97;3.90;;;;;;;;;;5052886;28;20515;-89
2023/07/09 12:34:19;;;;;;;4.13;3.73;;;;;;;;;;5051833;28;20526;-86
2023/07/09 12:36:47;;;;;;;3.90;3.43;;;;;;;;;;5052071;28;20227;-87
2023/07/09 12:39:15;;;;;;;4.40;4.00;;;;;;;;;;5054307;28;20416;-90
2023/07/09 12:41:42;;;;;;;3.67;3.37;;;;;;;;;;5054139;28;20502;-90
2023/07/09 12:44:16;;;;;;;4.20;3.80;;;;;;;;;;5053463;28;20434;-86
2023/07/09 12:46:42;;;;;;;3.40;2.97;;;;;;;;;;5052135;28;20535;-91
2023/07/09 12:49:08;;;;;;;3.10;2.80;;;;;;;;;;5053000;28;20416;-91
2023/07/09 12:51:37;;;;;;;4.47;3.73;;;;;;;;;;5046783;28;20428;-88
2023/07/09 12:54:12;;;;;;;4.37;4.00;;;;;;;;;;5031948;28;21020;-86
2023/07/09 12:56:38;;;;;;;5.50;3.90;;;;;;;;;;5031734;28;20440;-85
2023/07/09 12:59:15;;;;;;;4.00;3.60;;;;;;;;;;5033380;28;20449;-89
2023/07/09 13:01:41;;;;;;;4.10;3.80;;;;;;;;;;5044712;28;20176;-89
2023/07/09 13:04:11;;;;;;;4.07;3.70;;;;;;;;;;5052074;28;20826;-88
2023/07/09 13:06:37;;;;;;;3.90;3.50;;;;;;;;;;5050367;28;20169;-82
2023/07/09 13:09:12;;;;;;;3.47;3.00;;;;;;;;;;5052561;28;20432;-85
2023/07/09 13:11:40;;;;;;;4.80;4.07;;;;;;;;;;5049307;28;20530;-87
2023/07/09 13:14:14;;;;;;;4.03;3.63;;;;;;;;;;5050300;28;20467;-83
2023/07/09 13:16:40;;;;;;;4.00;3.70;;;;;;;;;;5052372;28;20408;-81
2023/07/09 13:19:13;;;;;;;3.90;3.60;;;;;;;;;;5052162;28;20550;-81
2023/07/09 13:21:40;;;;;;;4.47;4.00;;;;;;;;;;5052810;28;20401;-81
2023/07/09 13:24:32;;;;;;;4.90;3.43;;;;;;;;;;5052722;28;20564;-80
2023/07/09 13:26:59;;;;;;;4.70;3.73;;;;;;;;;;5050601;28;20404;-83
2023/07/09 13:29:25;;;;;;;3.63;3.27;;;;;;;;;;5052784;28;20443;-82
2023/07/09 13:31:51;;;;;;;5.17;3.87;;;;;;;;;;5051385;28;20459;-82
2023/07/09 13:34:28;;;;;;;3.77;3.30;;;;;;;;;;5051126;28;20177;-81
2023/07/09 13:36:58;;;;;;;5.63;3.83;;;;;;;;;;5051307;28;20411;-81
2023/07/09 13:39:24;;;;;;;3.80;3.50;;;;;;;;;;5051407;28;20428;-80
2023/07/09 13:41:53;;;;;;;3.93;3.53;;;;;;;;;;5051301;28;20423;-86
2023/07/09 13:44:20;;;;;;;4.10;3.80;;;;;;;;;;5052429;28;20421;-85
2023/07/09 13:46:46;;;;;;;4.20;3.67;;;;;;;;;;5052558;28;20420;-84
2023/07/09 13:49:17;;;;;;;4.97;3.60;;;;;;;;;;5052208;28;20884;-84
2023/07/09 13:51:44;;;;;;;6.50;4.40;;;;;;;;;;5052559;28;20523;-85
2023/07/09 13:54:17;;;;;;;3.70;3.40;;;;;;;;;;5052580;28;20416;-81
2023/07/09 13:56:43;;;;;;;5.20;3.07;;;;;;;;;;5052300;28;20499;-80
2023/07/09 13:59:13;;;;;;;5.20;3.53;;;;;;;;;;5052416;28;20440;-87
2023/07/09 14:01:39;;;;;;;4.90;3.97;;;;;;;;;;5051195;28;20177;-83
2023/07/09 14:04:05;;;;;;;4.20;3.57;;;;;;;;;;5052156;28;20562;-84
2023/07/09 14:06:31;;;;;;;4.27;3.27;;;;;;;;;;5052077;28;20466;-80
2023/07/09 14:08:57;;;;;;;3.80;3.20;;;;;;;;;;5052290;28;20424;-84
2023/07/09 14:11:23;;;;;;;4.20;3.80;;;;;;;;;;5050822;28;20284;-81
2023/07/09 14:13:49;;;;;;;4.17;3.87;;;;;;;;;;5052359;28;20186;-80
2023/07/09 14:16:15;;;;;;;3.53;3.23;;;;;;;;;;5051065;28;20178;-80
2023/07/09 14:18:41;;;;;;;4.00;3.70;;;;;;;;;;5051706;28;20174;-80
2023/07/09 14:21:14;;;;;;;4.60;4.10;;;;;;;;;;5049771;28;20489;-81
2023/07/09 14:23:39;;;;;;;5.00;3.80;;;;;;;;;;5041900;28;20227;-80
2023/07/09 14:26:05;;;;;;;4.50;3.83;;;;;;;;;;5033916;28;20764;-80
2023/07/09 14:28:31;;;;;;;5.23;4.07;;;;;;;;;;5032372;28;20627;-80
2023/07/09 14:30:57;;;;;;;3.20;2.90;;;;;;;;;;5032284;28;20167;-85
2023/07/09 14:33:23;;;;;;;4.43;3.80;;;;;;;;;;5051359;28;20852;-82
2023/07/09 14:35:50;;;;;;;4.27;3.87;;;;;;;;;;5038872;28;20186;-86
2023/07/09 14:38:23;;;;;;;5.13;4.07;;;;;;;;;;5043609;28;20697;-80
2023/07/09 14:40:50;;;;;;;8.40;4.83;;;;;;;;;;5034141;28;20463;-83
2023/07/09 14:43:16;;;;;;;3.40;2.90;;;;;;;;;;5046275;28;20574;-80
2023/07/09 14:45:52;;;;;;;4.50;4.10;;;;;;;;;;5054544;28;20504;-80
2023/07/09 14:48:19;;;;;;;4.93;3.60;;;;;;;;;;5053346;28;20232;-84